Time;durP1;ratioP1;P1;durP2;ratioP2;P2;SDS_P1;SDS_P2;PMS_P1;PMS_P2;Temp;Humidity;BMP_temperature;BMP_pressure;BME280_temperature;BME280_humidity;BME280_pressure;Samples;Min_cycle;Max_cycle;Signal;HPM_P1;HPM_P2
2022/01/25 00:10:35;;;;;;;2.85;2.23;;;;;;;18.30;44.71;102035.05;;;;-54
2022/01/25 00:27:09;;;;;;;2.59;2.37;;;;;;;18.20;44.78;102044.70;;;;-65
2022/01/25 00:30:11;;;;;;;2.50;2.27;;;;;;;18.18;44.66;102044.88;;;;-52
2022/01/25 00:32:55;;;;;;;3.41;2.31;;;;;;;18.16;44.73;102042.94;;;;-59
2022/01/25 00:35:55;;;;;;;2.30;2.10;;;;;;;18.16;44.70;102046.99;;;;-59
2022/01/25 00:38:55;;;;;;;2.81;2.30;;;;;;;18.13;44.76;102049.79;;;;-59
2022/01/25 00:41:55;;;;;;;2.43;2.19;;;;;;;18.11;44.74;102046.87;;;;-54
2022/01/25 00:44:55;;;;;;;2.33;2.00;;;;;;;18.11;44.83;102046.14;;;;-62
2022/01/25 00:47:55;;;;;;;2.40;2.20;;;;;;;18.09;44.76;102047.04;;;;-58
2022/01/25 00:51:03;;;;;;;2.46;2.23;;;;;;;18.07;44.74;102047.53;;;;-59
2022/01/25 00:53:57;;;;;;;2.51;2.31;;;;;;;18.06;44.82;102053.91;;;;-59
2022/01/25 00:56:55;;;;;;;2.37;2.17;;;;;;;18.05;44.83;102051.42;;;;-59
2022/01/25 00:59:55;;;;;;;2.43;2.23;;;;;;;18.02;44.77;102047.44;;;;-51
2022/01/25 01:02:55;;;;;;;2.49;2.29;;;;;;;18.01;44.78;102052.57;;;;-51
2022/01/25 01:05:55;;;;;;;2.63;2.43;;;;;;;18.00;44.80;102050.91;;;;-50
2022/01/25 01:08:55;;;;;;;2.55;2.33;;;;;;;17.98;44.76;102045.34;;;;-59
2022/01/25 01:12:00;;;;;;;2.84;2.27;;;;;;;17.97;44.72;102043.57;;;;-59
2022/01/25 01:15:05;;;;;;;2.58;2.20;;;;;;;17.95;44.80;102043.86;;;;-59
2022/01/25 01:30:06;;;;;;;2.55;2.35;;;;;;;17.89;44.78;102070.47;;;;-54
2022/01/25 01:33:26;;;;;;;2.59;2.39;;;;;;;17.87;44.83;102071.63;;;;-65
2022/01/25 01:36:31;;;;;;;2.68;2.37;;;;;;;17.86;44.78;102071.48;;;;-62
2022/01/25 01:43:12;;;;;;;2.46;2.26;;;;;;;17.83;44.76;102076.23;;;;-54
2022/01/25 01:46:01;;;;;;;2.59;2.39;;;;;;;17.81;44.78;102076.45;;;;-54
2022/01/25 01:48:58;;;;;;;2.97;2.45;;;;;;;17.80;44.82;102081.67;;;;-54
2022/01/25 01:51:55;;;;;;;2.51;2.31;;;;;;;17.79;44.79;102084.16;;;;-53
2022/01/25 01:54:55;;;;;;;2.53;2.33;;;;;;;17.78;44.73;102088.88;;;;-54
2022/01/25 01:57:55;;;;;;;2.78;2.27;;;;;;;17.75;44.78;102092.28;;;;-53
2022/01/25 02:00:55;;;;;;;2.51;2.31;;;;;;;17.75;44.77;102094.29;;;;-58
2022/01/25 02:03:55;;;;;;;2.62;2.26;;;;;;;17.73;44.71;102087.98;;;;-59
2022/01/25 02:06:55;;;;;;;2.81;2.46;;;;;;;17.72;44.76;102079.89;;;;-51
2022/01/25 02:09:55;;;;;;;3.05;2.53;;;;;;;17.71;44.71;102077.11;;;;-51
2022/01/25 02:12:55;;;;;;;3.13;2.66;;;;;;;17.71;44.72;102080.02;;;;-52
2022/01/25 02:15:57;;;;;;;2.69;2.49;;;;;;;17.68;44.78;102075.95;;;;-63
2022/01/25 02:24:55;;;;;;;2.53;2.33;;;;;;;17.64;44.79;102061.94;;;;-53
2022/01/25 02:27:55;;;;;;;2.80;2.55;;;;;;;17.63;44.74;102054.41;;;;-54
2022/01/25 02:30:55;;;;;;;2.66;2.46;;;;;;;17.62;44.74;102043.72;;;;-54
2022/01/25 02:33:55;;;;;;;3.03;2.59;;;;;;;17.61;44.73;102039.16;;;;-51
2022/01/25 02:36:55;;;;;;;2.87;2.51;;;;;;;17.59;44.74;102040.31;;;;-59
2022/01/25 02:39:55;;;;;;;2.82;2.46;;;;;;;17.59;44.75;102040.80;;;;-51
2022/01/25 02:42:56;;;;;;;2.67;2.47;;;;;;;17.59;44.75;102037.70;;;;-51
2022/01/25 02:46:17;;;;;;;2.71;2.49;;;;;;;17.57;44.71;102037.08;;;;-52
2022/01/25 02:48:55;;;;;;;2.62;2.42;;;;;;;17.56;44.72;102039.47;;;;-53
2022/01/25 02:51:55;;;;;;;2.90;2.57;;;;;;;17.55;44.73;102037.70;;;;-51
2022/01/25 02:54:55;;;;;;;3.14;2.84;;;;;;;17.54;44.67;102040.61;;;;-59
2022/01/25 02:57:55;;;;;;;3.09;2.70;;;;;;;17.52;44.67;102044.09;;;;-59
2022/01/25 03:00:55;;;;;;;3.39;2.57;;;;;;;17.52;44.75;102045.62;;;;-58
2022/01/25 03:03:55;;;;;;;2.74;2.54;;;;;;;17.51;44.75;102046.23;;;;-60
2022/01/25 03:06:55;;;;;;;2.99;2.69;;;;;;;17.49;44.74;102044.93;;;;-58
2022/01/25 03:09:56;;;;;;;2.91;2.57;;;;;;;17.48;44.68;102046.27;;;;-59
2022/01/25 03:12:56;;;;;;;3.15;2.67;;;;;;;17.47;44.66;102046.67;;;;-58
2022/01/25 03:16:00;;;;;;;2.98;2.69;;;;;;;17.46;44.64;102042.08;;;;-62
2022/01/25 03:18:57;;;;;;;2.77;2.57;;;;;;;17.45;44.71;102043.37;;;;-62
2022/01/25 03:21:55;;;;;;;3.05;2.75;;;;;;;17.43;44.69;102047.00;;;;-52
2022/01/25 03:24:55;;;;;;;2.92;2.62;;;;;;;17.42;44.65;102050.50;;;;-52
2022/01/25 03:27:56;;;;;;;2.95;2.67;;;;;;;17.42;44.70;102048.31;;;;-62
2022/01/25 03:30:55;;;;;;;3.03;2.73;;;;;;;17.42;44.66;102046.93;;;;-58
2022/01/25 03:33:55;;;;;;;2.89;2.61;;;;;;;17.41;44.61;102047.44;;;;-59
2022/01/25 03:36:55;;;;;;;3.14;2.71;;;;;;;17.39;44.69;102047.16;;;;-59
2022/01/25 03:39:55;;;;;;;2.83;2.63;;;;;;;17.38;44.68;102052.05;;;;-59
2022/01/25 03:42:55;;;;;;;2.88;2.61;;;;;;;17.37;44.68;102047.48;;;;-54
2022/01/25 03:46:06;;;;;;;2.79;2.59;;;;;;;17.36;44.63;102047.02;;;;-54
2022/01/25 03:51:55;;;;;;;3.35;2.77;;;;;;;17.34;44.61;102043.52;;;;-54
2022/01/25 03:54:55;;;;;;;3.20;2.90;;;;;;;17.33;44.68;102044.64;;;;-54
2022/01/25 03:57:55;;;;;;;3.11;2.81;;;;;;;17.32;44.65;102050.25;;;;-54
2022/01/25 04:00:55;;;;;;;2.73;2.50;;;;;;;17.32;44.66;102050.81;;;;-54
2022/01/25 04:04:01;;;;;;;2.84;2.63;;;;;;;17.31;44.64;102048.03;;;;-54
2022/01/25 04:06:55;;;;;;;2.86;2.60;;;;;;;17.29;44.59;102044.80;;;;-54
2022/01/25 04:09:55;;;;;;;3.07;2.77;;;;;;;17.27;44.59;102042.94;;;;-51
2022/01/25 04:12:55;;;;;;;3.39;2.84;;;;;;;17.27;44.61;102034.41;;;;-51
2022/01/25 04:15:58;;;;;;;3.23;2.93;;;;;;;17.26;44.53;102033.95;;;;-51
2022/01/25 04:19:07;;;;;;;2.91;2.66;;;;;;;17.25;44.58;102036.86;;;;-59
2022/01/25 04:25:15;;;;;;;3.10;2.80;;;;;;;17.23;44.52;102039.37;;;;-51
2022/01/25 04:27:55;;;;;;;3.02;2.75;;;;;;;17.22;44.67;102042.09;;;;-53
2022/01/25 04:30:55;;;;;;;3.16;2.86;;;;;;;17.22;44.57;102043.27;;;;-54
2022/01/25 04:34:09;;;;;;;2.79;2.59;;;;;;;17.21;44.51;102047.86;;;;-54
2022/01/25 04:48:51;;;;;;;3.04;2.74;;;;;;;17.20;44.56;102049.34;;;;-54
2022/01/25 04:51:32;;;;;;;3.25;2.90;;;;;;;17.16;44.55;102033.78;;;;-54
2022/01/25 04:54:01;;;;;;;3.40;3.01;;;;;;;17.15;44.53;102036.20;;;;-59
2022/01/25 04:57:05;;;;;;;3.15;2.82;;;;;;;17.14;44.47;102030.50;;;;-59
2022/01/25 05:00:02;;;;;;;3.00;2.65;;;;;;;17.14;44.57;102025.97;;;;-58
2022/01/25 05:03:04;;;;;;;3.41;2.90;;;;;;;17.14;44.53;102022.80;;;;-59
2022/01/25 05:06:00;;;;;;;3.03;2.73;;;;;;;17.13;44.44;102021.20;;;;-58
2022/01/25 05:08:56;;;;;;;3.29;2.99;;;;;;;17.12;44.50;102019.97;;;;-60
2022/01/25 05:11:58;;;;;;;3.10;2.80;;;;;;;17.12;44.55;102020.49;;;;-59
2022/01/25 05:15:06;;;;;;;3.23;2.93;;;;;;;17.11;44.47;102022.00;;;;-59
2022/01/25 05:18:10;;;;;;;3.17;2.87;;;;;;;17.10;44.50;102026.89;;;;-58
2022/01/25 05:23:55;;;;;;;3.23;2.90;;;;;;;17.08;44.47;102035.19;;;;-54
2022/01/25 05:26:55;;;;;;;3.26;2.96;;;;;;;17.06;44.40;102037.63;;;;-58
2022/01/25 05:29:55;;;;;;;3.15;2.85;;;;;;;17.06;44.49;102037.63;;;;-54
2022/01/25 05:32:55;;;;;;;3.27;2.87;;;;;;;17.05;44.51;102033.67;;;;-53
2022/01/25 05:35:55;;;;;;;3.25;2.93;;;;;;;17.05;44.53;102032.85;;;;-62
2022/01/25 05:38:56;;;;;;;3.19;2.89;;;;;;;17.04;44.41;102032.27;;;;-63
2022/01/25 05:42:12;;;;;;;3.49;2.89;;;;;;;17.03;44.53;102034.88;;;;-64
2022/01/25 05:45:11;;;;;;;3.29;2.67;;;;;;;17.03;44.53;102032.54;;;;-54
2022/01/25 05:47:55;;;;;;;3.17;2.87;;;;;;;17.04;44.57;102036.31;;;;-54
2022/01/25 05:50:55;;;;;;;5.81;5.02;;;;;;;16.86;41.11;102040.81;;;;-56
2022/01/25 05:53:55;;;;;;;11.08;6.54;;;;;;;16.69;38.73;102044.75;;;;-56
2022/01/25 05:56:55;;;;;;;13.95;6.37;;;;;;;16.58;38.76;102041.25;;;;-56
2022/01/25 05:59:55;;;;;;;9.91;6.05;;;;;;;16.66;40.70;102035.70;;;;-52
2022/01/25 06:02:56;;;;;;;7.83;5.51;;;;;;;16.72;41.43;102038.16;;;;-59
2022/01/25 06:05:55;;;;;;;6.39;5.29;;;;;;;16.78;41.81;102041.89;;;;-64
2022/01/25 06:08:55;;;;;;;5.47;4.58;;;;;;;16.84;41.94;102043.47;;;;-53
2022/01/25 06:11:55;;;;;;;6.04;5.19;;;;;;;16.89;42.09;102047.08;;;;-53
2022/01/25 06:14:55;;;;;;;5.70;4.69;;;;;;;16.94;42.19;102043.92;;;;-53
2022/01/25 06:17:55;;;;;;;5.99;4.73;;;;;;;16.99;42.32;102047.66;;;;-54
2022/01/25 06:20:55;;;;;;;5.36;4.42;;;;;;;17.04;42.32;102049.99;;;;-53
2022/01/25 06:23:55;;;;;;;6.20;4.52;;;;;;;17.09;42.49;102051.41;;;;-53
2022/01/25 06:26:55;;;;;;;6.58;4.22;;;;;;;17.13;42.80;102047.84;;;;-53
2022/01/25 06:29:55;;;;;;;5.40;4.01;;;;;;;17.16;42.98;102045.05;;;;-53
2022/01/25 06:32:55;;;;;;;4.77;4.25;;;;;;;17.19;43.16;102048.17;;;;-51
2022/01/25 06:35:56;;;;;;;5.99;4.29;;;;;;;17.21;43.16;102044.53;;;;-51
2022/01/25 06:38:55;;;;;;;5.79;4.28;;;;;;;17.22;43.29;102041.00;;;;-53
2022/01/25 06:41:55;;;;;;;6.09;3.87;;;;;;;17.23;43.21;102046.90;;;;-53
2022/01/25 06:44:59;;;;;;;6.17;4.09;;;;;;;17.25;43.27;102050.37;;;;-53
2022/01/25 06:47:55;;;;;;;4.65;3.84;;;;;;;17.26;43.33;102061.50;;;;-53
2022/01/25 06:50:55;;;;;;;5.17;4.22;;;;;;;17.27;43.35;102066.27;;;;-53
2022/01/25 06:53:55;;;;;;;12.87;4.12;;;;;;;17.32;44.04;102071.30;;;;-53
2022/01/25 06:56:55;;;;;;;4.48;3.95;;;;;;;17.36;44.62;102075.05;;;;-59
2022/01/25 06:59:55;;;;;;;4.49;3.71;;;;;;;17.40;44.66;102074.40;;;;-58
2022/01/25 07:02:55;;;;;;;6.67;3.73;;;;;;;17.46;44.78;102083.09;;;;-57
2022/01/25 07:05:55;;;;;;;5.43;3.57;;;;;;;17.54;44.35;102085.99;;;;-60
2022/01/25 07:08:55;;;;;;;4.10;3.70;;;;;;;17.56;44.24;102090.63;;;;-60
2022/01/25 07:11:55;;;;;;;4.62;3.84;;;;;;;17.58;44.11;102093.05;;;;-61
2022/01/25 07:14:55;;;;;;;4.82;3.79;;;;;;;17.60;43.90;102088.27;;;;-53
2022/01/25 07:17:55;;;;;;;4.64;3.83;;;;;;;17.63;43.72;102089.68;;;;-53
2022/01/25 07:20:55;;;;;;;6.09;3.63;;;;;;;17.67;43.72;102091.78;;;;-54
2022/01/25 07:23:55;;;;;;;5.21;3.99;;;;;;;17.72;43.88;102097.48;;;;-61
2022/01/25 07:26:55;;;;;;;4.55;3.57;;;;;;;17.75;43.91;102100.14;;;;-53
2022/01/25 07:29:55;;;;;;;5.74;3.40;;;;;;;17.80;43.90;102101.05;;;;-51
2022/01/25 07:32:55;;;;;;;5.52;3.61;;;;;;;17.85;43.96;102099.60;;;;-58
2022/01/25 07:35:55;;;;;;;4.54;3.63;;;;;;;17.90;44.05;102094.27;;;;-57
2022/01/25 07:38:55;;;;;;;4.71;3.83;;;;;;;17.94;44.00;102085.00;;;;-52
2022/01/25 07:41:57;;;;;;;7.46;3.56;;;;;;;17.99;44.04;102083.88;;;;-56
2022/01/25 07:44:55;;;;;;;4.78;3.51;;;;;;;18.04;44.01;102090.19;;;;-55
2022/01/25 07:47:55;;;;;;;3.94;3.53;;;;;;;18.08;44.01;102090.11;;;;-52
2022/01/25 07:50:55;;;;;;;5.35;3.54;;;;;;;18.12;43.98;102085.71;;;;-50
2022/01/25 07:53:55;;;;;;;4.60;3.77;;;;;;;18.17;43.98;102088.95;;;;-52
2022/01/25 07:56:55;;;;;;;4.67;3.38;;;;;;;18.21;43.87;102085.55;;;;-52
2022/01/25 07:59:55;;;;;;;4.71;3.49;;;;;;;18.22;43.91;102092.22;;;;-53
2022/01/25 08:02:55;;;;;;;3.89;3.30;;;;;;;18.25;43.97;102093.89;;;;-52
2022/01/25 08:33:29;;;;;;;5.47;4.00;;;;;;;18.51;43.69;102078.16;;;;-54
2022/01/25 08:36:55;;;;;;;10.21;3.99;;;;;;;18.53;44.20;102086.70;;;;-57
2022/01/25 08:39:29;;;;;;;4.27;3.73;;;;;;;18.54;44.64;102088.39;;;;-62
2022/01/25 08:42:29;;;;;;;7.93;4.45;;;;;;;18.60;44.04;102089.33;;;;-56
2022/01/25 08:45:43;;;;;;;7.05;4.17;;;;;;;18.62;44.21;102096.31;;;;-50
2022/01/25 08:51:29;;;;;;;7.93;4.03;;;;;;;18.68;44.38;102103.28;;;;-56
2022/01/25 09:00:29;;;;;;;5.59;4.21;;;;;;;18.76;44.17;102114.86;;;;-59
2022/01/25 09:03:29;;;;;;;5.38;4.19;;;;;;;18.80;44.19;102120.20;;;;-61
2022/01/25 09:06:30;;;;;;;8.93;4.14;;;;;;;18.82;44.22;102115.64;;;;-62
2022/01/25 09:09:29;;;;;;;6.43;4.38;;;;;;;18.85;44.43;102112.84;;;;-62
2022/01/25 09:12:30;;;;;;;6.01;4.30;;;;;;;18.87;44.32;102113.64;;;;-54
2022/01/25 09:15:30;;;;;;;5.51;3.92;;;;;;;18.90;44.40;102109.52;;;;-56
2022/01/25 09:18:29;;;;;;;6.78;3.97;;;;;;;18.92;44.37;102109.57;;;;-59
2022/01/25 09:21:29;;;;;;;5.25;4.37;;;;;;;18.96;44.46;102107.45;;;;-56
2022/01/25 09:24:29;;;;;;;4.77;4.01;;;;;;;18.98;44.60;102105.89;;;;-52
2022/01/25 09:27:29;;;;;;;5.23;4.17;;;;;;;19.03;44.55;102109.33;;;;-51
2022/01/25 09:30:29;;;;;;;6.09;4.12;;;;;;;19.07;44.58;102107.98;;;;-54
2022/01/25 09:33:29;;;;;;;4.69;3.79;;;;;;;19.12;44.56;102112.80;;;;-51
2022/01/25 09:36:29;;;;;;;6.59;4.13;;;;;;;19.15;44.52;102112.08;;;;-52
2022/01/25 09:39:29;;;;;;;5.21;4.21;;;;;;;19.16;44.48;102115.06;;;;-55
2022/01/25 09:42:31;;;;;;;6.19;3.95;;;;;;;19.20;44.48;102116.33;;;;-50
2022/01/25 09:45:29;;;;;;;4.85;4.23;;;;;;;19.22;44.43;102116.88;;;;-61
2022/01/25 09:48:29;;;;;;;6.17;4.16;;;;;;;19.26;44.42;102113.08;;;;-59
2022/01/25 09:51:29;;;;;;;5.59;3.89;;;;;;;19.29;44.38;102114.59;;;;-59
2022/01/25 09:54:29;;;;;;;4.55;3.97;;;;;;;19.28;44.28;102111.98;;;;-61
2022/01/25 09:57:29;;;;;;;5.05;4.27;;;;;;;19.31;44.31;102116.20;;;;-55
2022/01/25 10:00:30;;;;;;;5.68;4.48;;;;;;;19.33;44.18;102123.59;;;;-56
2022/01/25 10:03:33;;;;;;;5.50;4.07;;;;;;;19.34;44.26;102122.79;;;;-54
2022/01/25 10:06:29;;;;;;;4.68;3.98;;;;;;;19.35;44.01;102127.30;;;;-57
2022/01/25 10:09:29;;;;;;;5.10;4.37;;;;;;;19.36;44.12;102126.92;;;;-56
2022/01/25 10:12:29;;;;;;;4.85;3.99;;;;;;;19.37;44.11;102129.09;;;;-50
2022/01/25 10:15:29;;;;;;;4.43;4.01;;;;;;;19.39;44.35;102130.14;;;;-60
2022/01/25 10:18:29;;;;;;;6.11;4.04;;;;;;;19.44;44.37;102127.03;;;;-49
2022/01/25 10:21:29;;;;;;;4.62;4.15;;;;;;;19.47;44.48;102125.44;;;;-49
2022/01/25 10:24:31;;;;;;;4.44;4.00;;;;;;;19.48;44.31;102121.08;;;;-50
2022/01/25 10:28:03;;;;;;;5.42;4.06;;;;;;;19.49;44.37;102117.38;;;;-50
2022/01/25 10:30:29;;;;;;;4.64;3.83;;;;;;;19.51;44.22;102119.72;;;;-50
2022/01/25 10:33:32;;;;;;;4.99;3.94;;;;;;;19.54;44.07;102123.80;;;;-50
2022/01/25 10:36:29;;;;;;;4.41;3.85;;;;;;;19.57;44.27;102119.67;;;;-55
2022/01/25 10:39:29;;;;;;;4.74;3.95;;;;;;;19.59;44.19;102117.87;;;;-59
2022/01/25 10:42:30;;;;;;;4.68;3.81;;;;;;;19.59;44.12;102114.05;;;;-60
2022/01/25 10:45:29;;;;;;;4.67;4.07;;;;;;;19.62;44.08;102114.61;;;;-52
2022/01/25 10:48:29;;;;;;;4.77;3.95;;;;;;;19.61;44.13;102116.19;;;;-52
2022/01/25 10:51:29;;;;;;;5.23;4.25;;;;;;;19.62;44.20;102113.89;;;;-48
2022/01/25 10:54:29;;;;;;;6.13;4.44;;;;;;;19.62;43.22;102111.28;;;;-50
2022/01/25 10:57:29;;;;;;;6.58;4.53;;;;;;;19.66;43.83;102109.62;;;;-50
2022/01/25 11:00:29;;;;;;;9.17;4.60;;;;;;;19.67;43.86;102107.52;;;;-58
2022/01/25 11:03:29;;;;;;;6.09;4.31;;;;;;;19.69;43.95;102106.53;;;;-60
2022/01/25 11:06:29;;;;;;;6.49;4.60;;;;;;;19.71;43.95;102110.69;;;;-54
2022/01/25 11:09:34;;;;;;;5.43;4.10;;;;;;;19.72;43.94;102116.03;;;;-61
2022/01/25 11:12:36;;;;;;;6.24;4.37;;;;;;;19.73;43.94;102120.45;;;;-51
2022/01/25 11:15:29;;;;;;;5.52;4.26;;;;;;;19.74;43.93;102124.31;;;;-55
2022/01/25 11:18:30;;;;;;;6.25;4.18;;;;;;;19.74;43.76;102123.75;;;;-57
2022/01/25 11:21:29;;;;;;;5.67;4.31;;;;;;;19.73;43.65;102119.05;;;;-57
2022/01/25 11:24:31;;;;;;;4.52;3.85;;;;;;;19.71;43.64;102119.80;;;;-54
2022/01/25 11:27:29;;;;;;;4.29;3.88;;;;;;;19.69;43.74;102115.65;;;;-55
2022/01/25 11:30:29;;;;;;;4.97;4.01;;;;;;;19.68;43.74;102113.44;;;;-54
2022/01/25 11:33:29;;;;;;;4.57;4.10;;;;;;;19.67;43.69;102113.17;;;;-54
2022/01/25 11:36:29;;;;;;;4.33;3.89;;;;;;;19.66;43.67;102116.95;;;;-54
2022/01/25 11:39:30;;;;;;;4.55;3.92;;;;;;;19.65;43.74;102110.55;;;;-56
2022/01/25 11:42:36;;;;;;;6.40;4.20;;;;;;;19.65;43.60;102106.81;;;;-55
2022/01/25 11:45:29;;;;;;;5.18;3.85;;;;;;;19.64;43.68;102103.05;;;;-56
2022/01/25 11:48:29;;;;;;;4.62;3.93;;;;;;;19.63;43.61;102101.25;;;;-55
2022/01/25 11:51:29;;;;;;;7.39;3.88;;;;;;;19.63;43.66;102101.61;;;;-56
2022/01/25 11:54:29;;;;;;;4.23;3.74;;;;;;;19.62;43.62;102101.20;;;;-56
2022/01/25 11:57:29;;;;;;;5.02;3.93;;;;;;;19.62;43.60;102103.80;;;;-56
2022/01/25 12:00:29;;;;;;;4.49;3.84;;;;;;;19.62;43.61;102099.81;;;;-55
2022/01/25 12:03:29;;;;;;;4.55;3.89;;;;;;;19.61;43.69;102093.70;;;;-54
2022/01/25 12:06:31;;;;;;;3.98;3.58;;;;;;;19.62;43.64;102094.92;;;;-56
2022/01/25 12:09:42;;;;;;;4.44;3.78;;;;;;;19.62;43.68;102093.22;;;;-56
2022/01/25 12:12:29;;;;;;;4.49;3.51;;;;;;;19.62;43.56;102095.27;;;;-56
2022/01/25 12:15:29;;;;;;;4.69;4.07;;;;;;;19.62;43.61;102095.91;;;;-55
2022/01/25 12:18:29;;;;;;;4.43;4.03;;;;;;;19.62;43.61;102092.17;;;;-54
2022/01/25 12:21:29;;;;;;;4.09;3.69;;;;;;;19.62;43.67;102089.56;;;;-54
2022/01/25 12:24:32;;;;;;;4.69;3.84;;;;;;;19.62;43.70;102086.30;;;;-54
2022/01/25 12:27:30;;;;;;;4.52;3.61;;;;;;;19.63;43.72;102088.44;;;;-55
2022/01/25 12:30:29;;;;;;;4.36;3.76;;;;;;;19.62;43.62;102080.70;;;;-56
2022/01/25 12:33:29;;;;;;;4.17;3.77;;;;;;;19.63;43.59;102086.65;;;;-56
2022/01/25 12:36:29;;;;;;;4.69;3.66;;;;;;;19.62;43.64;102081.27;;;;-57
2022/01/25 12:39:29;;;;;;;4.38;3.58;;;;;;;19.63;43.55;102081.28;;;;-57
2022/01/25 12:42:29;;;;;;;4.55;3.77;;;;;;;19.61;43.55;102077.28;;;;-53
2022/01/25 12:45:29;;;;;;;7.15;4.05;;;;;;;19.66;43.49;102074.65;;;;-62
2022/01/25 12:48:29;;;;;;;7.19;4.11;;;;;;;19.68;43.63;102068.53;;;;-61
2022/01/25 12:51:29;;;;;;;6.11;4.10;;;;;;;19.72;43.55;102068.36;;;;-59
2022/01/25 12:54:29;;;;;;;5.37;3.86;;;;;;;19.73;43.55;102063.91;;;;-53
2022/01/25 12:57:29;;;;;;;6.35;4.37;;;;;;;19.77;43.81;102063.87;;;;-53
2022/01/25 13:00:29;;;;;;;5.98;4.54;;;;;;;19.78;43.88;102059.52;;;;-56
2022/01/25 13:03:30;;;;;;;6.06;4.34;;;;;;;19.80;43.94;102062.10;;;;-54
2022/01/25 13:06:30;;;;;;;6.53;4.15;;;;;;;19.83;43.62;102063.89;;;;-52
2022/01/25 13:09:34;;;;;;;7.29;4.51;;;;;;;19.84;43.76;102062.88;;;;-54
2022/01/25 13:12:34;;;;;;;5.81;4.50;;;;;;;19.86;43.43;102063.77;;;;-59
2022/01/25 13:15:40;;;;;;;7.44;4.44;;;;;;;19.88;43.45;102060.77;;;;-58
2022/01/25 13:18:31;;;;;;;6.39;4.18;;;;;;;19.87;43.35;102065.08;;;;-56
2022/01/25 13:21:30;;;;;;;6.17;4.15;;;;;;;19.88;43.48;102062.20;;;;-53
2022/01/25 13:24:32;;;;;;;6.85;4.01;;;;;;;19.89;43.62;102060.17;;;;-52
2022/01/25 13:27:29;;;;;;;8.18;4.73;;;;;;;19.87;43.10;102059.38;;;;-51
2022/01/25 13:30:41;;;;;;;10.07;4.87;;;;;;;19.88;43.00;102053.61;;;;-51
2022/01/25 13:33:31;;;;;;;24.79;5.09;;;;;;;19.96;44.61;102052.80;;;;-51
2022/01/25 13:36:31;;;;;;;8.73;4.62;;;;;;;19.97;43.79;102049.92;;;;-52
2022/01/25 13:39:30;;;;;;;7.81;4.03;;;;;;;19.97;43.97;102044.63;;;;-56
2022/01/25 13:42:36;;;;;;;9.28;4.19;;;;;;;19.99;43.93;102045.02;;;;-67
2022/01/25 13:45:48;;;;;;;5.55;4.14;;;;;;;20.00;43.84;102039.01;;;;-60
2022/01/25 13:48:29;;;;;;;7.73;3.97;;;;;;;19.97;43.60;102040.97;;;;-62
2022/01/25 13:51:29;;;;;;;16.63;11.63;;;;;;;19.60;40.57;102033.87;;;;-56
2022/01/25 13:54:29;;;;;;;17.37;13.45;;;;;;;19.33;39.59;102035.80;;;;-56
2022/01/25 13:57:29;;;;;;;16.61;11.29;;;;;;;19.45;41.17;102033.58;;;;-60
2022/01/25 14:00:29;;;;;;;16.33;9.49;;;;;;;19.54;41.48;102024.66;;;;-62
2022/01/25 14:03:29;;;;;;;10.95;8.10;;;;;;;19.60;41.77;102021.11;;;;-62
2022/01/25 14:06:29;;;;;;;11.11;7.77;;;;;;;19.64;41.95;102017.73;;;;-62
2022/01/25 14:09:31;;;;;;;9.89;6.95;;;;;;;19.67;42.13;102017.77;;;;-61
2022/01/25 14:21:52;;;;;;;12.36;6.25;;;;;;;19.87;43.12;102015.84;;;;-56
2022/01/25 14:24:29;;;;;;;10.57;5.85;;;;;;;19.94;43.51;102014.73;;;;-57
2022/01/25 14:27:32;;;;;;;36.03;6.94;;;;;;;19.98;43.58;102021.13;;;;-61
2022/01/25 14:30:29;;;;;;;7.92;5.76;;;;;;;20.01;43.05;102023.91;;;;-59
2022/01/25 14:33:30;;;;;;;6.77;5.19;;;;;;;19.99;43.06;102026.47;;;;-59
2022/01/25 14:36:29;;;;;;;13.31;5.76;;;;;;;19.94;42.33;102025.73;;;;-59
2022/01/25 14:39:29;;;;;;;11.63;5.25;;;;;;;20.01;42.83;102024.56;;;;-58
2022/01/25 14:42:29;;;;;;;11.07;5.55;;;;;;;20.02;42.74;102027.19;;;;-49
2022/01/25 14:45:29;;;;;;;10.85;5.25;;;;;;;20.05;42.81;102029.89;;;;-49
2022/01/25 14:48:34;;;;;;;12.30;5.51;;;;;;;20.06;42.89;102030.64;;;;-50
2022/01/25 14:51:29;;;;;;;8.63;5.28;;;;;;;20.08;42.97;102021.98;;;;-49
2022/01/25 14:54:29;;;;;;;8.15;5.04;;;;;;;20.10;42.98;102025.46;;;;-50
2022/01/25 14:57:39;;;;;;;8.72;4.83;;;;;;;20.11;43.03;102030.77;;;;-48
2022/01/25 15:00:29;;;;;;;8.94;4.83;;;;;;;20.09;43.01;102030.33;;;;-51
2022/01/25 15:03:30;;;;;;;6.92;4.53;;;;;;;20.11;43.02;102034.95;;;;-59
2022/01/25 15:06:29;;;;;;;5.73;4.79;;;;;;;20.13;43.15;102040.75;;;;-64
2022/01/25 15:09:29;;;;;;;5.26;4.39;;;;;;;20.09;42.94;102042.05;;;;-51
2022/01/25 15:12:33;;;;;;;8.92;6.95;;;;;;;20.10;42.47;102038.08;;;;-53
2022/01/25 15:15:45;;;;;;;9.97;5.89;;;;;;;20.09;42.60;102038.41;;;;-49
2022/01/25 15:18:30;;;;;;;6.74;5.09;;;;;;;20.13;42.70;102039.70;;;;-52
2022/01/25 15:21:29;;;;;;;7.02;5.25;;;;;;;20.15;42.83;102038.82;;;;-58
2022/01/25 15:24:30;;;;;;;8.75;5.10;;;;;;;20.16;42.88;102035.91;;;;-54
2022/01/25 15:27:31;;;;;;;5.37;4.73;;;;;;;20.16;42.91;102032.48;;;;-60
2022/01/25 15:30:29;;;;;;;8.28;5.11;;;;;;;20.17;42.81;102031.92;;;;-51
2022/01/25 15:33:29;;;;;;;9.30;5.17;;;;;;;20.19;42.95;102032.66;;;;-57
2022/01/25 15:36:31;;;;;;;6.29;4.55;;;;;;;20.23;42.90;102036.24;;;;-61
2022/01/25 15:39:29;;;;;;;7.98;4.89;;;;;;;20.23;42.71;102042.03;;;;-53
2022/01/25 15:42:31;;;;;;;5.57;4.75;;;;;;;20.21;42.73;102044.33;;;;-53
2022/01/25 15:45:31;;;;;;;5.19;4.58;;;;;;;20.18;42.85;102048.66;;;;-54
2022/01/25 15:48:29;;;;;;;7.01;4.51;;;;;;;20.16;42.75;102045.91;;;;-54
2022/01/25 15:51:29;;;;;;;6.36;4.69;;;;;;;20.15;42.85;102046.11;;;;-54
2022/01/25 15:54:29;;;;;;;6.65;4.51;;;;;;;20.13;42.79;102049.58;;;;-53
2022/01/25 15:57:30;;;;;;;4.87;4.12;;;;;;;20.12;42.79;102052.62;;;;-54
2022/01/25 16:00:29;;;;;;;6.07;4.49;;;;;;;20.12;42.81;102045.88;;;;-54
2022/01/25 16:03:32;;;;;;;5.39;4.52;;;;;;;20.11;42.79;102047.33;;;;-54
2022/01/25 16:06:29;;;;;;;6.68;4.51;;;;;;;20.10;42.88;102046.22;;;;-53
2022/01/25 16:09:29;;;;;;;5.33;4.38;;;;;;;20.09;42.94;102045.14;;;;-53
2022/01/25 16:12:29;;;;;;;5.41;4.25;;;;;;;20.08;42.87;102043.31;;;;-54
2022/01/25 16:15:29;;;;;;;6.04;4.27;;;;;;;20.06;42.90;102044.88;;;;-59
2022/01/25 16:18:29;;;;;;;6.62;5.67;;;;;;;20.06;42.79;102047.73;;;;-59
2022/01/25 16:21:29;;;;;;;9.33;5.10;;;;;;;20.03;42.44;102045.70;;;;-57
2022/01/25 16:24:29;;;;;;;7.35;5.60;;;;;;;20.02;42.12;102048.09;;;;-56
2022/01/25 16:27:29;;;;;;;7.55;5.93;;;;;;;20.01;41.88;102049.14;;;;-57
2022/01/25 16:30:29;;;;;;;7.97;5.93;;;;;;;20.00;41.58;102050.89;;;;-47
2022/01/25 16:33:29;;;;;;;8.57;5.73;;;;;;;20.00;41.67;102054.05;;;;-52
2022/01/25 16:36:30;;;;;;;6.80;5.97;;;;;;;19.98;41.57;102055.14;;;;-51
2022/01/25 16:39:29;;;;;;;7.94;6.27;;;;;;;19.97;41.55;102053.42;;;;-51
2022/01/25 16:42:29;;;;;;;8.11;6.19;;;;;;;19.98;41.45;102055.14;;;;-59
2022/01/25 16:45:32;;;;;;;6.87;5.88;;;;;;;19.97;41.31;102050.40;;;;-59
2022/01/25 16:48:29;;;;;;;7.99;6.19;;;;;;;20.00;41.32;102055.36;;;;-55
2022/01/25 16:51:30;;;;;;;9.87;5.63;;;;;;;20.05;42.12;102057.48;;;;-54
2022/01/25 16:54:29;;;;;;;8.00;5.48;;;;;;;20.09;42.26;102055.08;;;;-56
2022/01/25 16:57:29;;;;;;;6.35;5.06;;;;;;;20.12;42.22;102057.27;;;;-60
2022/01/25 17:00:32;;;;;;;5.96;5.31;;;;;;;20.13;42.33;102055.56;;;;-58
2022/01/25 17:03:29;;;;;;;7.43;5.35;;;;;;;20.13;42.38;102052.02;;;;-51
2022/01/25 17:06:29;;;;;;;6.13;4.87;;;;;;;20.16;42.51;102049.48;;;;-56
2022/01/25 17:09:29;;;;;;;8.56;5.13;;;;;;;20.14;42.32;102048.62;;;;-62
2022/01/25 17:12:29;;;;;;;12.39;5.49;;;;;;;20.13;42.14;102047.88;;;;-59
2022/01/25 17:15:29;;;;;;;7.04;5.38;;;;;;;20.15;42.27;102048.55;;;;-59
2022/01/25 17:18:30;;;;;;;6.11;4.67;;;;;;;20.17;42.36;102048.20;;;;-59
2022/01/25 17:21:29;;;;;;;8.75;5.23;;;;;;;20.17;42.51;102044.73;;;;-57
2022/01/25 17:24:29;;;;;;;6.31;4.94;;;;;;;20.15;42.37;102049.80;;;;-58
2022/01/25 17:27:29;;;;;;;6.39;4.84;;;;;;;20.16;42.43;102046.72;;;;-59
2022/01/25 17:30:29;;;;;;;7.29;5.07;;;;;;;20.18;42.55;102049.05;;;;-59
2022/01/25 17:33:29;;;;;;;6.16;4.81;;;;;;;20.18;42.47;102053.45;;;;-57
2022/01/25 17:36:29;;;;;;;6.50;5.19;;;;;;;20.20;42.54;102061.01;;;;-58
2022/01/25 17:39:29;;;;;;;6.95;5.00;;;;;;;20.22;42.61;102053.16;;;;-59
2022/01/25 17:42:29;;;;;;;6.87;4.78;;;;;;;20.23;42.62;102052.20;;;;-58
2022/01/25 17:45:29;;;;;;;6.84;4.73;;;;;;;20.25;42.61;102058.29;;;;-56
2022/01/25 17:48:29;;;;;;;7.42;4.81;;;;;;;20.25;42.70;102055.44;;;;-56
2022/01/25 17:51:29;;;;;;;5.87;4.73;;;;;;;20.27;42.81;102049.88;;;;-59
2022/01/25 17:54:29;;;;;;;5.67;4.61;;;;;;;20.28;42.88;102043.01;;;;-61
2022/01/25 17:57:29;;;;;;;7.30;4.91;;;;;;;20.31;42.99;102048.37;;;;-54
2022/01/25 18:00:29;;;;;;;5.69;4.41;;;;;;;20.31;43.14;102052.52;;;;-54
2022/01/25 18:03:29;;;;;;;6.16;4.77;;;;;;;20.33;43.24;102054.45;;;;-54
2022/01/25 18:06:29;;;;;;;7.13;4.94;;;;;;;20.36;43.67;102056.50;;;;-61
2022/01/25 18:09:30;;;;;;;5.77;4.52;;;;;;;20.33;43.03;102053.39;;;;-61
2022/01/25 18:12:29;;;;;;;6.04;4.72;;;;;;;20.30;42.94;102058.29;;;;-60
2022/01/25 18:15:29;;;;;;;6.39;4.67;;;;;;;20.28;42.86;102052.85;;;;-59
2022/01/25 18:18:29;;;;;;;5.00;4.50;;;;;;;20.26;42.84;102055.24;;;;-52
2022/01/25 18:21:32;;;;;;;5.39;4.82;;;;;;;20.24;42.79;102055.10;;;;-52
2022/01/25 18:24:35;;;;;;;6.68;4.57;;;;;;;20.24;42.85;102061.13;;;;-60
2022/01/25 18:27:29;;;;;;;5.91;4.73;;;;;;;20.23;42.79;102059.20;;;;-58
2022/01/25 18:30:29;;;;;;;6.18;4.85;;;;;;;20.22;42.84;102061.88;;;;-58